sensor_id;sensor_type;location;lat;lon;timestamp;P1;durP1;ratioP1;P2;durP2;ratioP2
8088;SDS011;57635;49.194;12.104;2023-07-20T00:02:07;7.00;;;6.50;;
8088;SDS011;57635;49.194;12.104;2023-07-20T00:04:34;6.27;;;5.87;;
8088;SDS011;57635;49.194;12.104;2023-07-20T00:07:03;6.13;;;5.70;;
8088;SDS011;57635;49.194;12.104;2023-07-20T00:09:31;7.33;;;6.63;;
8088;SDS011;57635;49.194;12.104;2023-07-20T00:11:59;7.37;;;6.50;;
8088;SDS011;57635;49.194;12.104;2023-07-20T00:14:27;6.60;;;5.97;;
8088;SDS011;57635;49.194;12.104;2023-07-20T00:16:54;7.23;;;6.53;;
8088;SDS011;57635;49.194;12.104;2023-07-20T00:19:24;7.53;;;6.77;;
8088;SDS011;57635;49.194;12.104;2023-07-20T00:21:53;6.93;;;5.43;;
8088;SDS011;57635;49.194;12.104;2023-07-20T00:24:21;6.40;;;5.87;;
8088;SDS011;57635;49.194;12.104;2023-07-20T00:26:48;8.47;;;6.10;;
8088;SDS011;57635;49.194;12.104;2023-07-20T00:29:16;6.77;;;6.17;;
8088;SDS011;57635;49.194;12.104;2023-07-20T00:31:44;10.30;;;6.27;;
8088;SDS011;57635;49.194;12.104;2023-07-20T00:34:13;6.23;;;5.73;;
8088;SDS011;57635;49.194;12.104;2023-07-20T00:36:42;6.63;;;6.03;;
8088;SDS011;57635;49.194;12.104;2023-07-20T00:39:10;6.17;;;5.50;;
8088;SDS011;57635;49.194;12.104;2023-07-20T00:41:37;6.20;;;5.70;;
8088;SDS011;57635;49.194;12.104;2023-07-20T00:44:05;6.70;;;5.97;;
8088;SDS011;57635;49.194;12.104;2023-07-20T00:46:33;5.90;;;5.40;;
8088;SDS011;57635;49.194;12.104;2023-07-20T00:49:01;6.90;;;6.30;;
8088;SDS011;57635;49.194;12.104;2023-07-20T00:51:29;7.10;;;6.43;;
8088;SDS011;57635;49.194;12.104;2023-07-20T00:53:58;5.83;;;5.43;;
8088;SDS011;57635;49.194;12.104;2023-07-20T00:56:26;6.13;;;5.67;;
8088;SDS011;57635;49.194;12.104;2023-07-20T00:58:54;6.43;;;5.93;;
8088;SDS011;57635;49.194;12.104;2023-07-20T01:01:22;7.50;;;5.53;;
8088;SDS011;57635;49.194;12.104;2023-07-20T01:03:50;6.07;;;5.57;;
8088;SDS011;57635;49.194;12.104;2023-07-20T01:06:22;5.90;;;5.30;;
8088;SDS011;57635;49.194;12.104;2023-07-20T01:08:57;7.57;;;5.47;;
8088;SDS011;57635;49.194;12.104;2023-07-20T01:11:34;6.43;;;5.73;;
8088;SDS011;57635;49.194;12.104;2023-07-20T01:14:05;6.37;;;5.73;;
8088;SDS011;57635;49.194;12.104;2023-07-20T01:16:33;5.57;;;5.07;;
8088;SDS011;57635;49.194;12.104;2023-07-20T01:19:01;5.97;;;5.40;;
8088;SDS011;57635;49.194;12.104;2023-07-20T01:21:31;5.83;;;5.43;;
8088;SDS011;57635;49.194;12.104;2023-07-20T01:27:04;6.07;;;5.60;;
8088;SDS011;57635;49.194;12.104;2023-07-20T01:29:49;6.27;;;5.23;;
8088;SDS011;57635;49.194;12.104;2023-07-20T01:32:29;5.93;;;5.43;;
8088;SDS011;57635;49.194;12.104;2023-07-20T01:34:58;8.87;;;5.70;;
8088;SDS011;57635;49.194;12.104;2023-07-20T01:37:27;6.00;;;5.07;;
8088;SDS011;57635;49.194;12.104;2023-07-20T01:39:56;6.23;;;5.63;;
8088;SDS011;57635;49.194;12.104;2023-07-20T01:42:24;5.63;;;5.13;;
8088;SDS011;57635;49.194;12.104;2023-07-20T01:44:52;6.83;;;6.13;;
8088;SDS011;57635;49.194;12.104;2023-07-20T01:47:20;5.40;;;5.00;;
8088;SDS011;57635;49.194;12.104;2023-07-20T01:49:49;5.70;;;5.20;;
8088;SDS011;57635;49.194;12.104;2023-07-20T01:52:16;5.37;;;4.87;;
8088;SDS011;57635;49.194;12.104;2023-07-20T01:54:44;6.20;;;5.50;;
8088;SDS011;57635;49.194;12.104;2023-07-20T01:57:11;6.47;;;5.83;;
8088;SDS011;57635;49.194;12.104;2023-07-20T01:59:39;5.57;;;5.27;;
8088;SDS011;57635;49.194;12.104;2023-07-20T02:02:07;5.63;;;5.23;;
8088;SDS011;57635;49.194;12.104;2023-07-20T02:04:35;6.07;;;5.57;;
8088;SDS011;57635;49.194;12.104;2023-07-20T02:07:04;6.30;;;5.70;;
8088;SDS011;57635;49.194;12.104;2023-07-20T02:09:32;6.23;;;5.73;;
8088;SDS011;57635;49.194;12.104;2023-07-20T02:12:00;7.00;;;6.30;;
8088;SDS011;57635;49.194;12.104;2023-07-20T02:14:28;6.53;;;5.73;;
8088;SDS011;57635;49.194;12.104;2023-07-20T02:16:56;6.63;;;6.03;;
8088;SDS011;57635;49.194;12.104;2023-07-20T02:19:25;6.90;;;6.10;;
8088;SDS011;57635;49.194;12.104;2023-07-20T02:21:53;6.20;;;5.70;;
8088;SDS011;57635;49.194;12.104;2023-07-20T02:24:22;6.67;;;6.13;;
8088;SDS011;57635;49.194;12.104;2023-07-20T02:26:51;6.13;;;5.60;;
8088;SDS011;57635;49.194;12.104;2023-07-20T02:29:19;6.53;;;5.80;;
8088;SDS011;57635;49.194;12.104;2023-07-20T02:31:46;7.30;;;5.60;;
8088;SDS011;57635;49.194;12.104;2023-07-20T02:34:14;6.40;;;5.93;;
8088;SDS011;57635;49.194;12.104;2023-07-20T02:36:42;5.60;;;5.20;;
8088;SDS011;57635;49.194;12.104;2023-07-20T02:39:09;7.60;;;5.90;;
8088;SDS011;57635;49.194;12.104;2023-07-20T02:41:38;5.53;;;5.10;;
8088;SDS011;57635;49.194;12.104;2023-07-20T02:44:06;6.30;;;5.07;;
8088;SDS011;57635;49.194;12.104;2023-07-20T02:46:34;5.57;;;5.17;;
8088;SDS011;57635;49.194;12.104;2023-07-20T02:49:02;6.03;;;5.57;;
8088;SDS011;57635;49.194;12.104;2023-07-20T02:51:30;6.13;;;5.53;;
8088;SDS011;57635;49.194;12.104;2023-07-20T02:53:58;5.73;;;5.20;;
8088;SDS011;57635;49.194;12.104;2023-07-20T02:56:26;6.50;;;5.40;;
8088;SDS011;57635;49.194;12.104;2023-07-20T02:58:55;6.47;;;5.70;;
8088;SDS011;57635;49.194;12.104;2023-07-20T03:01:23;7.93;;;6.73;;
8088;SDS011;57635;49.194;12.104;2023-07-20T03:03:55;6.53;;;5.90;;
8088;SDS011;57635;49.194;12.104;2023-07-20T03:06:23;7.07;;;5.80;;
8088;SDS011;57635;49.194;12.104;2023-07-20T03:08:52;6.53;;;5.93;;
8088;SDS011;57635;49.194;12.104;2023-07-20T03:11:20;7.37;;;6.47;;
8088;SDS011;57635;49.194;12.104;2023-07-20T03:13:47;6.37;;;5.77;;
8088;SDS011;57635;49.194;12.104;2023-07-20T03:16:17;6.33;;;5.77;;
8088;SDS011;57635;49.194;12.104;2023-07-20T03:18:47;7.30;;;5.90;;
8088;SDS011;57635;49.194;12.104;2023-07-20T03:21:14;6.93;;;6.30;;
8088;SDS011;57635;49.194;12.104;2023-07-20T03:23:42;7.57;;;6.83;;
8088;SDS011;57635;49.194;12.104;2023-07-20T03:26:10;7.03;;;6.40;;
8088;SDS011;57635;49.194;12.104;2023-07-20T03:28:37;6.27;;;5.70;;
8088;SDS011;57635;49.194;12.104;2023-07-20T03:31:05;6.57;;;6.07;;
8088;SDS011;57635;49.194;12.104;2023-07-20T03:33:34;6.87;;;5.87;;
8088;SDS011;57635;49.194;12.104;2023-07-20T03:36:02;6.67;;;6.13;;
8088;SDS011;57635;49.194;12.104;2023-07-20T03:38:30;10.60;;;7.93;;
8088;SDS011;57635;49.194;12.104;2023-07-20T03:40:59;6.63;;;6.03;;
8088;SDS011;57635;49.194;12.104;2023-07-20T03:43:27;6.90;;;6.30;;
8088;SDS011;57635;49.194;12.104;2023-07-20T03:45:55;5.80;;;5.40;;
8088;SDS011;57635;49.194;12.104;2023-07-20T03:48:24;8.37;;;6.13;;
8088;SDS011;57635;49.194;12.104;2023-07-20T03:50:54;7.23;;;6.07;;
8088;SDS011;57635;49.194;12.104;2023-07-20T03:53:22;5.80;;;5.40;;
8088;SDS011;57635;49.194;12.104;2023-07-20T03:55:50;6.37;;;5.90;;
8088;SDS011;57635;49.194;12.104;2023-07-20T03:58:19;5.93;;;5.43;;
8088;SDS011;57635;49.194;12.104;2023-07-20T04:00:48;6.10;;;5.57;;
8088;SDS011;57635;49.194;12.104;2023-07-20T04:03:17;6.73;;;6.23;;
8088;SDS011;57635;49.194;12.104;2023-07-20T04:05:45;7.70;;;6.23;;
8088;SDS011;57635;49.194;12.104;2023-07-20T04:08:14;7.80;;;5.90;;
8088;SDS011;57635;49.194;12.104;2023-07-20T04:10:43;6.83;;;6.20;;
8088;SDS011;57635;49.194;12.104;2023-07-20T04:13:11;6.40;;;5.57;;
8088;SDS011;57635;49.194;12.104;2023-07-20T04:15:38;6.30;;;5.80;;
8088;SDS011;57635;49.194;12.104;2023-07-20T04:18:06;7.73;;;6.03;;
8088;SDS011;57635;49.194;12.104;2023-07-20T04:20:34;6.53;;;5.93;;
8088;SDS011;57635;49.194;12.104;2023-07-20T04:23:01;7.00;;;6.40;;
8088;SDS011;57635;49.194;12.104;2023-07-20T04:25:30;6.47;;;5.93;;
8088;SDS011;57635;49.194;12.104;2023-07-20T04:27:59;6.53;;;6.03;;
8088;SDS011;57635;49.194;12.104;2023-07-20T04:30:27;6.43;;;5.93;;
8088;SDS011;57635;49.194;12.104;2023-07-20T04:32:56;6.90;;;6.20;;
8088;SDS011;57635;49.194;12.104;2023-07-20T04:38:13;6.43;;;5.73;;
8088;SDS011;57635;49.194;12.104;2023-07-20T04:40:43;6.03;;;5.53;;
8088;SDS011;57635;49.194;12.104;2023-07-20T04:43:11;6.60;;;5.90;;
8088;SDS011;57635;49.194;12.104;2023-07-20T04:45:39;6.33;;;5.83;;
8088;SDS011;57635;49.194;12.104;2023-07-20T04:48:08;6.03;;;5.43;;
8088;SDS011;57635;49.194;12.104;2023-07-20T04:50:37;5.90;;;5.30;;
8088;SDS011;57635;49.194;12.104;2023-07-20T04:53:05;5.93;;;5.53;;
8088;SDS011;57635;49.194;12.104;2023-07-20T04:55:33;6.30;;;5.67;;
8088;SDS011;57635;49.194;12.104;2023-07-20T04:58:02;6.73;;;6.23;;
8088;SDS011;57635;49.194;12.104;2023-07-20T05:00:31;5.73;;;5.23;;
8088;SDS011;57635;49.194;12.104;2023-07-20T05:02:59;5.90;;;5.40;;
8088;SDS011;57635;49.194;12.104;2023-07-20T05:05:27;6.30;;;5.70;;
8088;SDS011;57635;49.194;12.104;2023-07-20T05:07:55;6.03;;;5.47;;
8088;SDS011;57635;49.194;12.104;2023-07-20T05:10:22;6.47;;;4.93;;
8088;SDS011;57635;49.194;12.104;2023-07-20T05:12:50;5.63;;;5.13;;
8088;SDS011;57635;49.194;12.104;2023-07-20T05:15:19;8.10;;;5.53;;
8088;SDS011;57635;49.194;12.104;2023-07-20T05:17:47;6.17;;;5.33;;
8088;SDS011;57635;49.194;12.104;2023-07-20T05:20:15;6.80;;;6.10;;
8088;SDS011;57635;49.194;12.104;2023-07-20T05:22:42;6.97;;;4.83;;
8088;SDS011;57635;49.194;12.104;2023-07-20T05:25:10;6.73;;;6.03;;
8088;SDS011;57635;49.194;12.104;2023-07-20T05:27:39;7.13;;;5.33;;
8088;SDS011;57635;49.194;12.104;2023-07-20T05:30:07;7.37;;;5.00;;
8088;SDS011;57635;49.194;12.104;2023-07-20T05:32:36;5.30;;;4.80;;
8088;SDS011;57635;49.194;12.104;2023-07-20T05:35:04;7.50;;;6.33;;
8088;SDS011;57635;49.194;12.104;2023-07-20T05:37:34;5.47;;;4.90;;
8088;SDS011;57635;49.194;12.104;2023-07-20T05:40:01;6.13;;;5.53;;
8088;SDS011;57635;49.194;12.104;2023-07-20T05:42:29;7.03;;;4.93;;
8088;SDS011;57635;49.194;12.104;2023-07-20T05:44:57;13.67;;;6.33;;
8088;SDS011;57635;49.194;12.104;2023-07-20T05:47:24;7.97;;;5.90;;
8088;SDS011;57635;49.194;12.104;2023-07-20T05:49:53;6.43;;;6.03;;
8088;SDS011;57635;49.194;12.104;2023-07-20T05:52:21;9.83;;;6.87;;
8088;SDS011;57635;49.194;12.104;2023-07-20T05:54:48;7.13;;;6.53;;
8088;SDS011;57635;49.194;12.104;2023-07-20T05:57:16;7.50;;;5.50;;
8088;SDS011;57635;49.194;12.104;2023-07-20T05:59:44;7.27;;;6.60;;
8088;SDS011;57635;49.194;12.104;2023-07-20T06:02:11;6.57;;;6.03;;
8088;SDS011;57635;49.194;12.104;2023-07-20T06:04:39;7.90;;;6.47;;
8088;SDS011;57635;49.194;12.104;2023-07-20T06:07:09;6.70;;;5.57;;
8088;SDS011;57635;49.194;12.104;2023-07-20T06:09:37;6.90;;;6.17;;
8088;SDS011;57635;49.194;12.104;2023-07-20T06:12:05;6.43;;;5.93;;
8088;SDS011;57635;49.194;12.104;2023-07-20T06:14:34;6.20;;;5.80;;
8088;SDS011;57635;49.194;12.104;2023-07-20T06:17:02;5.87;;;5.37;;
8088;SDS011;57635;49.194;12.104;2023-07-20T06:19:30;6.37;;;5.87;;
8088;SDS011;57635;49.194;12.104;2023-07-20T06:21:57;5.80;;;5.23;;
8088;SDS011;57635;49.194;12.104;2023-07-20T06:24:26;6.33;;;4.97;;
8088;SDS011;57635;49.194;12.104;2023-07-20T06:26:54;7.23;;;6.10;;
8088;SDS011;57635;49.194;12.104;2023-07-20T06:29:21;5.07;;;4.67;;
8088;SDS011;57635;49.194;12.104;2023-07-20T06:31:49;5.00;;;4.50;;
8088;SDS011;57635;49.194;12.104;2023-07-20T06:34:17;4.90;;;4.60;;
8088;SDS011;57635;49.194;12.104;2023-07-20T06:36:49;5.40;;;5.10;;
8088;SDS011;57635;49.194;12.104;2023-07-20T06:39:16;6.70;;;4.93;;
8088;SDS011;57635;49.194;12.104;2023-07-20T06:41:48;5.80;;;5.17;;
8088;SDS011;57635;49.194;12.104;2023-07-20T06:44:19;4.97;;;4.57;;
8088;SDS011;57635;49.194;12.104;2023-07-20T06:46:47;5.33;;;4.83;;
8088;SDS011;57635;49.194;12.104;2023-07-20T06:49:23;6.47;;;4.80;;
8088;SDS011;57635;49.194;12.104;2023-07-20T06:51:52;8.33;;;5.60;;
8088;SDS011;57635;49.194;12.104;2023-07-20T06:54:19;6.33;;;5.73;;
8088;SDS011;57635;49.194;12.104;2023-07-20T06:56:50;5.37;;;4.77;;
8088;SDS011;57635;49.194;12.104;2023-07-20T06:59:21;5.47;;;4.97;;
8088;SDS011;57635;49.194;12.104;2023-07-20T07:01:50;5.07;;;4.57;;
8088;SDS011;57635;49.194;12.104;2023-07-20T07:04:18;4.40;;;4.10;;
8088;SDS011;57635;49.194;12.104;2023-07-20T07:06:46;5.47;;;4.97;;
8088;SDS011;57635;49.194;12.104;2023-07-20T07:09:14;5.70;;;4.67;;
8088;SDS011;57635;49.194;12.104;2023-07-20T07:11:41;6.43;;;4.30;;
8088;SDS011;57635;49.194;12.104;2023-07-20T07:14:11;4.80;;;4.40;;
8088;SDS011;57635;49.194;12.104;2023-07-20T07:16:39;4.30;;;4.00;;
8088;SDS011;57635;49.194;12.104;2023-07-20T07:19:06;4.90;;;4.50;;
8088;SDS011;57635;49.194;12.104;2023-07-20T07:21:34;4.53;;;3.77;;
8088;SDS011;57635;49.194;12.104;2023-07-20T07:24:02;4.30;;;3.83;;
8088;SDS011;57635;49.194;12.104;2023-07-20T07:26:30;4.13;;;3.73;;
8088;SDS011;57635;49.194;12.104;2023-07-20T07:28:57;4.90;;;4.33;;
8088;SDS011;57635;49.194;12.104;2023-07-20T07:31:28;4.37;;;3.90;;
8088;SDS011;57635;49.194;12.104;2023-07-20T07:33:55;4.70;;;4.27;;
8088;SDS011;57635;49.194;12.104;2023-07-20T07:36:23;5.33;;;4.80;;
8088;SDS011;57635;49.194;12.104;2023-07-20T07:38:51;4.60;;;4.20;;
8088;SDS011;57635;49.194;12.104;2023-07-20T07:41:22;5.50;;;4.10;;
8088;SDS011;57635;49.194;12.104;2023-07-20T07:43:49;6.40;;;4.53;;
8088;SDS011;57635;49.194;12.104;2023-07-20T07:46:17;4.40;;;4.03;;
8088;SDS011;57635;49.194;12.104;2023-07-20T07:48:46;4.33;;;3.60;;
8088;SDS011;57635;49.194;12.104;2023-07-20T07:51:13;5.00;;;3.90;;
8088;SDS011;57635;49.194;12.104;2023-07-20T07:53:41;4.10;;;3.80;;
8088;SDS011;57635;49.194;12.104;2023-07-20T07:56:10;4.30;;;3.37;;
8088;SDS011;57635;49.194;12.104;2023-07-20T07:58:37;4.03;;;3.73;;
8088;SDS011;57635;49.194;12.104;2023-07-20T08:01:05;3.40;;;3.10;;
8088;SDS011;57635;49.194;12.104;2023-07-20T08:03:33;3.77;;;3.47;;
8088;SDS011;57635;49.194;12.104;2023-07-20T08:06:03;3.10;;;2.90;;
8088;SDS011;57635;49.194;12.104;2023-07-20T08:08:31;3.93;;;3.40;;
8088;SDS011;57635;49.194;12.104;2023-07-20T08:11:00;5.53;;;3.50;;
8088;SDS011;57635;49.194;12.104;2023-07-20T08:13:33;3.37;;;3.17;;
8088;SDS011;57635;49.194;12.104;2023-07-20T08:16:00;4.80;;;2.90;;
8088;SDS011;57635;49.194;12.104;2023-07-20T08:18:28;3.50;;;3.20;;
8088;SDS011;57635;49.194;12.104;2023-07-20T08:20:57;3.83;;;3.53;;
8088;SDS011;57635;49.194;12.104;2023-07-20T08:23:26;3.13;;;2.93;;
8088;SDS011;57635;49.194;12.104;2023-07-20T08:25:54;3.07;;;2.87;;
8088;SDS011;57635;49.194;12.104;2023-07-20T08:28:22;3.17;;;2.87;;
8088;SDS011;57635;49.194;12.104;2023-07-20T08:30:49;3.10;;;2.60;;
8088;SDS011;57635;49.194;12.104;2023-07-20T08:33:18;3.60;;;2.67;;
8088;SDS011;57635;49.194;12.104;2023-07-20T08:35:47;5.90;;;5.30;;
8088;SDS011;57635;49.194;12.104;2023-07-20T08:38:15;3.20;;;3.00;;
8088;SDS011;57635;49.194;12.104;2023-07-20T08:40:45;3.30;;;2.80;;
8088;SDS011;57635;49.194;12.104;2023-07-20T08:43:14;3.77;;;2.97;;
8088;SDS011;57635;49.194;12.104;2023-07-20T08:45:44;2.90;;;2.70;;
8088;SDS011;57635;49.194;12.104;2023-07-20T08:48:12;3.37;;;2.90;;
8088;SDS011;57635;49.194;12.104;2023-07-20T08:50:40;5.00;;;3.10;;
8088;SDS011;57635;49.194;12.104;2023-07-20T08:53:08;2.43;;;2.27;;
8088;SDS011;57635;49.194;12.104;2023-07-20T08:55:37;4.73;;;2.53;;
8088;SDS011;57635;49.194;12.104;2023-07-20T08:58:07;3.10;;;2.80;;
8088;SDS011;57635;49.194;12.104;2023-07-20T09:00:35;4.87;;;2.43;;
8088;SDS011;57635;49.194;12.104;2023-07-20T09:03:03;3.90;;;2.40;;
8088;SDS011;57635;49.194;12.104;2023-07-20T09:05:32;2.53;;;2.33;;
8088;SDS011;57635;49.194;12.104;2023-07-20T09:08:01;4.63;;;2.47;;
8088;SDS011;57635;49.194;12.104;2023-07-20T09:10:29;2.73;;;2.33;;
8088;SDS011;57635;49.194;12.104;2023-07-20T09:12:57;2.60;;;2.50;;
8088;SDS011;57635;49.194;12.104;2023-07-20T09:15:26;2.80;;;2.60;;
8088;SDS011;57635;49.194;12.104;2023-07-20T09:17:54;3.47;;;2.20;;
8088;SDS011;57635;49.194;12.104;2023-07-20T09:20:21;3.07;;;2.77;;
8088;SDS011;57635;49.194;12.104;2023-07-20T09:22:50;3.17;;;2.53;;
8088;SDS011;57635;49.194;12.104;2023-07-20T09:25:19;2.43;;;2.23;;
8088;SDS011;57635;49.194;12.104;2023-07-20T09:27:51;2.17;;;2.07;;
8088;SDS011;57635;49.194;12.104;2023-07-20T09:30:21;2.57;;;2.37;;
8088;SDS011;57635;49.194;12.104;2023-07-20T09:32:56;2.50;;;2.30;;
8088;SDS011;57635;49.194;12.104;2023-07-20T09:35:25;2.27;;;2.10;;
8088;SDS011;57635;49.194;12.104;2023-07-20T09:38:06;2.13;;;2.03;;
8088;SDS011;57635;49.194;12.104;2023-07-20T09:40:38;3.77;;;2.20;;
8088;SDS011;57635;49.194;12.104;2023-07-20T09:43:08;4.47;;;2.63;;
8088;SDS011;57635;49.194;12.104;2023-07-20T09:45:39;6.20;;;2.30;;
8088;SDS011;57635;49.194;12.104;2023-07-20T09:48:12;2.50;;;2.30;;
8088;SDS011;57635;49.194;12.104;2023-07-20T09:50:48;2.77;;;2.20;;
8088;SDS011;57635;49.194;12.104;2023-07-20T09:53:17;3.93;;;2.30;;
8088;SDS011;57635;49.194;12.104;2023-07-20T09:55:45;2.60;;;2.40;;
8088;SDS011;57635;49.194;12.104;2023-07-20T09:58:14;2.57;;;2.33;;
8088;SDS011;57635;49.194;12.104;2023-07-20T10:00:42;4.17;;;2.60;;
8088;SDS011;57635;49.194;12.104;2023-07-20T10:03:18;3.17;;;1.97;;
8088;SDS011;57635;49.194;12.104;2023-07-20T10:05:48;2.77;;;1.97;;
8088;SDS011;57635;49.194;12.104;2023-07-20T10:08:19;2.07;;;1.90;;
8088;SDS011;57635;49.194;12.104;2023-07-20T10:10:51;4.97;;;2.33;;
8088;SDS011;57635;49.194;12.104;2023-07-20T10:13:21;2.30;;;1.70;;
8088;SDS011;57635;49.194;12.104;2023-07-20T10:15:53;2.20;;;2.00;;
8088;SDS011;57635;49.194;12.104;2023-07-20T10:18:25;3.63;;;2.30;;
8088;SDS011;57635;49.194;12.104;2023-07-20T10:20:55;3.07;;;2.00;;
8088;SDS011;57635;49.194;12.104;2023-07-20T10:23:27;3.07;;;2.20;;
8088;SDS011;57635;49.194;12.104;2023-07-20T10:25:56;3.63;;;2.33;;
8088;SDS011;57635;49.194;12.104;2023-07-20T10:28:26;1.93;;;1.83;;
8088;SDS011;57635;49.194;12.104;2023-07-20T10:30:54;2.37;;;2.03;;
8088;SDS011;57635;49.194;12.104;2023-07-20T10:33:23;2.20;;;2.00;;
8088;SDS011;57635;49.194;12.104;2023-07-20T10:35:52;3.57;;;2.30;;
8088;SDS011;57635;49.194;12.104;2023-07-20T10:38:20;2.53;;;2.33;;
8088;SDS011;57635;49.194;12.104;2023-07-20T10:41:16;2.30;;;2.10;;
8088;SDS011;57635;49.194;12.104;2023-07-20T10:43:46;2.10;;;1.90;;
8088;SDS011;57635;49.194;12.104;2023-07-20T10:46:14;3.47;;;2.20;;
8088;SDS011;57635;49.194;12.104;2023-07-20T10:49:02;2.30;;;1.80;;
8088;SDS011;57635;49.194;12.104;2023-07-20T10:51:38;1.80;;;1.70;;
8088;SDS011;57635;49.194;12.104;2023-07-20T10:54:07;2.10;;;2.00;;
8088;SDS011;57635;49.194;12.104;2023-07-20T10:56:35;2.20;;;2.00;;
8088;SDS011;57635;49.194;12.104;2023-07-20T10:59:16;2.27;;;2.07;;
8088;SDS011;57635;49.194;12.104;2023-07-20T11:01:46;2.00;;;1.90;;
8088;SDS011;57635;49.194;12.104;2023-07-20T11:04:17;2.00;;;1.90;;
8088;SDS011;57635;49.194;12.104;2023-07-20T11:06:45;2.27;;;2.00;;
8088;SDS011;57635;49.194;12.104;2023-07-20T11:09:14;2.70;;;1.90;;
8088;SDS011;57635;49.194;12.104;2023-07-20T11:11:42;2.20;;;2.00;;
8088;SDS011;57635;49.194;12.104;2023-07-20T11:14:11;2.17;;;1.97;;
8088;SDS011;57635;49.194;12.104;2023-07-20T11:16:48;2.43;;;2.20;;
8088;SDS011;57635;49.194;12.104;2023-07-20T11:19:19;2.43;;;1.60;;
8088;SDS011;57635;49.194;12.104;2023-07-20T11:21:53;2.27;;;2.17;;
8088;SDS011;57635;49.194;12.104;2023-07-20T11:24:29;2.63;;;2.27;;
8088;SDS011;57635;49.194;12.104;2023-07-20T11:26:58;2.57;;;2.37;;
8088;SDS011;57635;49.194;12.104;2023-07-20T11:29:26;3.33;;;1.97;;
8088;SDS011;57635;49.194;12.104;2023-07-20T11:31:59;1.80;;;1.70;;
8088;SDS011;57635;49.194;12.104;2023-07-20T11:34:31;4.20;;;2.80;;
8088;SDS011;57635;49.194;12.104;2023-07-20T11:36:59;3.10;;;2.83;;
8088;SDS011;57635;49.194;12.104;2023-07-20T11:39:31;4.03;;;2.30;;
8088;SDS011;57635;49.194;12.104;2023-07-20T11:41:59;1.87;;;1.77;;
8088;SDS011;57635;49.194;12.104;2023-07-20T11:44:27;1.67;;;1.57;;
8088;SDS011;57635;49.194;12.104;2023-07-20T11:47:00;1.73;;;1.63;;
8088;SDS011;57635;49.194;12.104;2023-07-20T11:49:30;2.03;;;1.93;;
8088;SDS011;57635;49.194;12.104;2023-07-20T11:52:02;1.77;;;1.63;;
8088;SDS011;57635;49.194;12.104;2023-07-20T11:54:31;2.10;;;1.80;;
8088;SDS011;57635;49.194;12.104;2023-07-20T11:57:00;2.63;;;1.87;;
8088;SDS011;57635;49.194;12.104;2023-07-20T11:59:28;2.43;;;1.90;;
8088;SDS011;57635;49.194;12.104;2023-07-20T12:01:56;2.87;;;1.83;;
8088;SDS011;57635;49.194;12.104;2023-07-20T12:04:24;2.50;;;1.90;;
8088;SDS011;57635;49.194;12.104;2023-07-20T12:06:54;2.13;;;2.03;;
8088;SDS011;57635;49.194;12.104;2023-07-20T12:09:22;3.23;;;1.50;;
8088;SDS011;57635;49.194;12.104;2023-07-20T12:11:55;1.97;;;1.87;;
8088;SDS011;57635;49.194;12.104;2023-07-20T12:14:25;3.03;;;2.83;;
8088;SDS011;57635;49.194;12.104;2023-07-20T12:16:53;3.80;;;2.33;;
8088;SDS011;57635;49.194;12.104;2023-07-20T12:19:24;2.03;;;1.93;;
8088;SDS011;57635;49.194;12.104;2023-07-20T12:21:56;1.80;;;1.70;;
8088;SDS011;57635;49.194;12.104;2023-07-20T12:24:26;2.07;;;1.97;;
8088;SDS011;57635;49.194;12.104;2023-07-20T12:26:55;2.57;;;2.33;;
8088;SDS011;57635;49.194;12.104;2023-07-20T12:29:24;2.87;;;1.90;;
8088;SDS011;57635;49.194;12.104;2023-07-20T12:31:52;2.07;;;1.73;;
8088;SDS011;57635;49.194;12.104;2023-07-20T12:34:20;3.43;;;2.30;;
8088;SDS011;57635;49.194;12.104;2023-07-20T12:36:47;1.80;;;1.70;;
8088;SDS011;57635;49.194;12.104;2023-07-20T12:39:16;3.23;;;2.17;;
8088;SDS011;57635;49.194;12.104;2023-07-20T12:41:44;1.63;;;1.53;;
8088;SDS011;57635;49.194;12.104;2023-07-20T12:44:12;2.60;;;2.20;;
8088;SDS011;57635;49.194;12.104;2023-07-20T12:46:39;2.53;;;1.80;;
8088;SDS011;57635;49.194;12.104;2023-07-20T12:49:08;4.03;;;3.27;;
8088;SDS011;57635;49.194;12.104;2023-07-20T12:51:35;12.60;;;2.43;;
8088;SDS011;57635;49.194;12.104;2023-07-20T12:54:03;3.40;;;2.10;;
8088;SDS011;57635;49.194;12.104;2023-07-20T12:56:32;1.63;;;1.53;;
8088;SDS011;57635;49.194;12.104;2023-07-20T12:59:03;2.80;;;1.57;;
8088;SDS011;57635;49.194;12.104;2023-07-20T13:01:31;2.67;;;1.87;;
8088;SDS011;57635;49.194;12.104;2023-07-20T13:03:59;1.60;;;1.57;;
8088;SDS011;57635;49.194;12.104;2023-07-20T13:06:30;1.60;;;1.50;;
8088;SDS011;57635;49.194;12.104;2023-07-20T13:08:57;2.57;;;1.50;;
8088;SDS011;57635;49.194;12.104;2023-07-20T13:11:25;4.40;;;1.73;;
8088;SDS011;57635;49.194;12.104;2023-07-20T13:13:54;2.53;;;1.77;;
8088;SDS011;57635;49.194;12.104;2023-07-20T13:16:22;3.30;;;1.73;;
8088;SDS011;57635;49.194;12.104;2023-07-20T13:18:49;1.60;;;1.50;;
8088;SDS011;57635;49.194;12.104;2023-07-20T13:21:17;2.80;;;2.10;;
8088;SDS011;57635;49.194;12.104;2023-07-20T13:23:50;2.67;;;1.83;;
8088;SDS011;57635;49.194;12.104;2023-07-20T13:26:17;2.90;;;2.27;;
8088;SDS011;57635;49.194;12.104;2023-07-20T13:28:45;1.90;;;1.60;;
8088;SDS011;57635;49.194;12.104;2023-07-20T13:31:15;2.17;;;1.60;;
8088;SDS011;57635;49.194;12.104;2023-07-20T13:33:43;2.40;;;1.53;;
8088;SDS011;57635;49.194;12.104;2023-07-20T13:36:22;1.73;;;1.60;;
8088;SDS011;57635;49.194;12.104;2023-07-20T13:38:50;4.60;;;1.77;;
8088;SDS011;57635;49.194;12.104;2023-07-20T13:41:18;1.97;;;1.70;;
8088;SDS011;57635;49.194;12.104;2023-07-20T13:43:46;1.57;;;1.47;;
8088;SDS011;57635;49.194;12.104;2023-07-20T13:46:15;1.73;;;1.63;;
8088;SDS011;57635;49.194;12.104;2023-07-20T13:49:03;1.30;;;1.30;;
8088;SDS011;57635;49.194;12.104;2023-07-20T13:51:38;2.17;;;1.67;;
8088;SDS011;57635;49.194;12.104;2023-07-20T13:54:06;1.83;;;1.73;;
8088;SDS011;57635;49.194;12.104;2023-07-20T13:56:37;1.57;;;1.47;;
8088;SDS011;57635;49.194;12.104;2023-07-20T13:59:07;1.90;;;1.80;;
8088;SDS011;57635;49.194;12.104;2023-07-20T14:01:36;2.10;;;2.00;;
8088;SDS011;57635;49.194;12.104;2023-07-20T14:04:04;1.40;;;1.30;;
8088;SDS011;57635;49.194;12.104;2023-07-20T14:06:32;1.73;;;1.63;;
8088;SDS011;57635;49.194;12.104;2023-07-20T14:09:01;2.37;;;1.93;;
8088;SDS011;57635;49.194;12.104;2023-07-20T14:11:29;1.50;;;1.43;;
8088;SDS011;57635;49.194;12.104;2023-07-20T14:14:00;2.47;;;2.37;;
8088;SDS011;57635;49.194;12.104;2023-07-20T14:16:27;1.80;;;1.67;;
8088;SDS011;57635;49.194;12.104;2023-07-20T14:18:59;1.93;;;1.57;;
8088;SDS011;57635;49.194;12.104;2023-07-20T14:21:27;1.60;;;1.50;;
8088;SDS011;57635;49.194;12.104;2023-07-20T14:23:57;3.47;;;2.00;;
8088;SDS011;57635;49.194;12.104;2023-07-20T14:26:27;2.27;;;2.07;;
8088;SDS011;57635;49.194;12.104;2023-07-20T14:28:59;1.70;;;1.60;;
8088;SDS011;57635;49.194;12.104;2023-07-20T14:31:27;1.30;;;1.30;;
8088;SDS011;57635;49.194;12.104;2023-07-20T14:33:55;2.27;;;1.60;;
8088;SDS011;57635;49.194;12.104;2023-07-20T14:36:26;1.70;;;1.57;;
8088;SDS011;57635;49.194;12.104;2023-07-20T14:38:54;1.47;;;1.33;;
8088;SDS011;57635;49.194;12.104;2023-07-20T14:41:22;1.50;;;1.40;;
8088;SDS011;57635;49.194;12.104;2023-07-20T14:43:49;1.87;;;1.73;;
8088;SDS011;57635;49.194;12.104;2023-07-20T14:46:17;1.57;;;1.57;;
8088;SDS011;57635;49.194;12.104;2023-07-20T14:48:47;2.80;;;1.80;;
8088;SDS011;57635;49.194;12.104;2023-07-20T14:51:14;2.10;;;1.90;;
8088;SDS011;57635;49.194;12.104;2023-07-20T14:53:44;1.60;;;1.50;;
8088;SDS011;57635;49.194;12.104;2023-07-20T14:56:11;1.67;;;1.57;;
8088;SDS011;57635;49.194;12.104;2023-07-20T14:58:39;1.27;;;1.27;;
8088;SDS011;57635;49.194;12.104;2023-07-20T15:01:07;1.13;;;1.03;;
8088;SDS011;57635;49.194;12.104;2023-07-20T15:03:34;2.33;;;1.90;;
8088;SDS011;57635;49.194;12.104;2023-07-20T15:06:02;1.50;;;1.40;;